createdAt,value
2019-03-12T00:03:07.914Z,8.60
2019-03-12T00:08:10.313Z,6.03
2019-03-12T00:13:12.657Z,7.10
2019-03-12T00:18:14.734Z,7.42
2019-03-12T00:23:17.173Z,11.50
2019-03-12T00:28:19.523Z,4.72
2019-03-12T00:33:21.649Z,8.50
2019-03-12T00:38:23.684Z,9.05
2019-03-12T00:43:25.751Z,6.35
2019-03-12T00:48:27.787Z,5.35
2019-03-12T00:53:29.864Z,8.45
2019-03-12T00:58:32.192Z,10.63
2019-03-12T01:03:34.575Z,7.45
2019-03-12T01:08:36.664Z,7.72
2019-03-12T01:13:38.767Z,10.08
2019-03-12T01:18:40.823Z,5.75
2019-03-12T01:23:43.296Z,8.68
2019-03-12T01:28:45.479Z,6.60
2019-03-12T01:33:47.615Z,10.38
2019-03-12T01:38:49.673Z,9.83
2019-03-12T01:43:51.718Z,5.65
2019-03-12T01:48:53.723Z,8.55
2019-03-12T01:53:55.809Z,9.93
2019-03-12T01:58:57.917Z,8.38
2019-03-12T02:04:00.007Z,6.45
2019-03-12T02:09:02.596Z,8.15
2019-03-12T02:14:21.919Z,6.05
2019-03-12T02:19:24.245Z,4.78
2019-03-12T02:24:26.638Z,8.65
2019-03-12T02:29:28.665Z,6.97
2019-03-12T02:34:31.032Z,8.03
2019-03-12T02:39:33.359Z,6.95
2019-03-12T02:44:35.405Z,9.78
2019-03-12T02:49:37.446Z,9.65
2019-03-12T02:54:40.041Z,10.28
2019-03-12T02:59:42.124Z,13.35
2019-03-12T03:04:44.175Z,6.83
2019-03-12T03:09:46.298Z,10.28
2019-03-12T03:14:48.370Z,9.13
2019-03-12T03:19:50.429Z,12.40
2019-03-12T03:24:52.509Z,8.93
2019-03-12T03:29:54.600Z,8.38
2019-03-12T03:34:56.690Z,9.23
2019-03-12T03:39:58.791Z,10.75
2019-03-12T03:45:00.924Z,8.35
2019-03-12T03:50:03.254Z,11.70
2019-03-12T03:55:06.806Z,10.00
2019-03-12T04:00:12.175Z,8.00
2019-03-12T04:05:14.557Z,8.75
2019-03-12T04:10:16.571Z,11.68
2019-03-12T04:15:18.607Z,11.05
2019-03-12T04:20:20.974Z,8.95
2019-03-12T04:25:23.179Z,9.15
2019-03-12T04:30:25.248Z,15.88
2019-03-12T04:35:27.356Z,8.80
2019-03-12T04:40:29.394Z,8.73
2019-03-12T04:45:31.525Z,8.40
2019-03-12T04:50:33.604Z,10.00
2019-03-12T04:55:35.639Z,7.55
2019-03-12T05:00:38.083Z,10.30
2019-03-12T05:05:40.157Z,6.03
2019-03-12T05:10:42.610Z,7.20
2019-03-12T05:15:45.067Z,8.05
2019-03-12T05:20:47.114Z,9.50
2019-03-12T05:25:49.198Z,13.48
2019-03-12T05:30:51.238Z,9.45
2019-03-12T05:35:53.267Z,6.05
2019-03-12T05:40:55.353Z,8.58
2019-03-12T05:45:57.783Z,10.10
2019-03-12T05:50:59.867Z,7.47
2019-03-12T05:56:02.184Z,8.25
2019-03-12T06:01:06.679Z,13.85
2019-03-12T06:06:08.769Z,13.65
2019-03-12T06:11:11.127Z,11.43
2019-03-12T06:16:13.244Z,12.03
2019-03-12T06:21:15.384Z,12.68
2019-03-12T06:26:17.564Z,7.55
2019-03-12T06:31:45.631Z,8.28
2019-03-12T06:36:51.618Z,6.67
2019-03-12T06:42:02.111Z,8.80
2019-03-12T06:47:32.777Z,15.43
2019-03-12T06:53:09.546Z,14.58
2019-03-12T06:58:43.138Z,11.60
2019-03-12T07:03:54.994Z,17.65
2019-03-12T07:09:15.182Z,12.28
2019-03-12T07:14:27.831Z,12.55
2019-03-12T07:19:55.256Z,8.78
2019-03-12T07:25:08.712Z,10.35
2019-03-12T07:30:32.142Z,11.63
2019-03-12T07:35:52.675Z,9.35
2019-03-12T07:41:26.522Z,13.60
2019-03-12T07:46:46.057Z,11.35
2019-03-12T07:52:10.703Z,7.55
2019-03-12T07:57:47.796Z,13.70
2019-03-12T08:03:06.769Z,15.32
2019-03-12T08:08:28.420Z,14.03
2019-03-12T08:13:43.826Z,20.10
2019-03-12T08:19:11.746Z,8.65
2019-03-12T08:24:33.749Z,12.10
2019-03-12T08:29:54.824Z,14.40
2019-03-12T08:35:34.693Z,11.45
2019-03-12T08:40:52.356Z,11.65
2019-03-12T08:46:14.008Z,11.57
2019-03-12T08:51:35.654Z,9.70
2019-03-12T08:57:06.451Z,13.70
2019-03-12T09:02:34.254Z,8.28
2019-03-12T09:08:07.854Z,11.68
2019-03-12T09:13:39.006Z,16.23
2019-03-12T09:19:12.954Z,10.40
2019-03-12T09:24:34.610Z,10.55
2019-03-12T09:29:42.795Z,9.53
2019-03-12T09:34:51.208Z,13.03
2019-03-12T09:40:21.623Z,9.43
2019-03-12T09:45:49.243Z,10.28
2019-03-12T09:51:10.849Z,10.32
2019-03-12T09:56:32.466Z,12.55
2019-03-12T10:01:43.419Z,7.70
2019-03-12T10:07:03.876Z,9.10
2019-03-12T10:12:24.275Z,8.85
2019-03-12T10:17:44.533Z,8.65
2019-03-12T10:23:07.014Z,12.58
2019-03-12T10:28:25.607Z,6.53
2019-03-12T10:33:50.171Z,9.38
2019-03-12T10:39:43.807Z,11.30
2019-03-12T10:45:05.413Z,12.23
2019-03-12T10:50:07.898Z,10.10
2019-03-12T10:55:13.384Z,14.18
2019-03-12T11:00:14.347Z,13.20
2019-03-12T11:05:17.633Z,10.80
2019-03-12T11:10:20.007Z,8.20
2019-03-12T11:15:22.023Z,8.05
2019-03-12T11:20:24.372Z,9.35
2019-03-12T11:25:28.183Z,16.10
2019-03-12T11:30:30.553Z,8.15
2019-03-12T11:35:39.212Z,9.65
2019-03-12T11:40:36.976Z,5.47
2019-03-12T11:45:39.456Z,12.78
2019-03-12T11:50:42.001Z,11.22
2019-03-12T11:55:44.380Z,12.65
2019-03-12T12:00:55.109Z,9.75
2019-03-12T12:05:57.140Z,8.80
2019-03-12T12:10:59.463Z,11.25
2019-03-12T12:16:01.632Z,15.28
2019-03-12T12:21:03.949Z,9.08
2019-03-12T12:26:05.957Z,15.78
2019-03-12T12:31:08.033Z,7.55
2019-03-12T12:36:10.072Z,13.68
2019-03-12T12:41:12.148Z,8.80
2019-03-12T12:46:14.194Z,8.73
2019-03-12T12:51:16.420Z,13.70
2019-03-12T12:56:18.478Z,10.80
2019-03-12T13:01:20.593Z,11.57
2019-03-12T13:06:22.981Z,5.40
2019-03-12T13:11:25.061Z,11.40
2019-03-12T13:16:27.048Z,10.50
2019-03-12T13:21:29.149Z,10.88
2019-03-12T13:26:31.219Z,9.55
2019-03-12T13:31:33.258Z,6.50
2019-03-12T13:36:35.624Z,9.53
2019-03-12T13:41:38.051Z,9.10
2019-03-12T13:46:40.666Z,5.40
2019-03-12T13:51:42.446Z,10.75
2019-03-12T13:56:44.552Z,7.78
2019-03-12T14:01:46.713Z,8.38
2019-03-12T14:06:48.718Z,5.87
2019-03-12T14:11:50.798Z,8.00
2019-03-12T14:16:53.220Z,5.87
2019-03-12T14:21:55.428Z,7.70
2019-03-12T14:26:57.526Z,6.00
2019-03-12T14:31:59.612Z,6.05
2019-03-12T14:37:02.046Z,7.37
2019-03-12T14:42:10.344Z,6.55
2019-03-12T14:47:12.409Z,9.45
2019-03-12T14:52:23.808Z,7.97
2019-03-12T14:57:26.130Z,9.90
2019-03-12T15:02:28.215Z,8.63
2019-03-12T15:07:30.264Z,7.25
2019-03-12T15:12:32.326Z,6.50
2019-03-12T15:17:34.330Z,7.00
2019-03-12T15:22:36.410Z,7.15
2019-03-12T15:27:38.447Z,6.80
2019-03-12T15:32:40.551Z,5.72
2019-03-12T15:37:42.642Z,5.90
2019-03-12T15:42:45.199Z,5.55
2019-03-12T15:47:47.290Z,3.77
2019-03-12T15:52:49.328Z,3.90
2019-03-12T15:57:51.440Z,6.05
2019-03-12T16:02:54.108Z,6.60
2019-03-12T16:07:56.191Z,3.70
2019-03-12T16:12:58.512Z,6.30
2019-03-12T16:18:00.546Z,4.65
2019-03-12T16:23:02.748Z,3.33
2019-03-12T16:28:04.810Z,5.22
2019-03-12T16:33:07.227Z,3.27
2019-03-12T16:38:09.303Z,5.28
2019-03-12T16:43:11.356Z,3.22
2019-03-12T16:48:13.391Z,3.25
2019-03-12T16:53:15.556Z,5.50
2019-03-12T16:58:17.940Z,7.22
2019-03-12T17:03:20.127Z,4.87
2019-03-12T17:08:22.509Z,1.75
2019-03-12T17:13:24.599Z,3.98
2019-03-12T17:18:26.714Z,3.95
2019-03-12T17:23:29.049Z,3.55
2019-03-12T17:28:31.495Z,2.70
2019-03-12T17:33:33.533Z,6.35
2019-03-12T17:38:45.998Z,7.25
2019-03-12T17:43:40.481Z,3.85
2019-03-12T17:48:42.548Z,3.37
2019-03-12T17:53:44.609Z,4.90
2019-03-12T17:58:47.024Z,6.42
2019-03-12T18:03:49.042Z,5.70
2019-03-12T18:08:51.183Z,2.75
2019-03-12T18:13:53.304Z,4.10
2019-03-12T18:18:55.463Z,4.62
2019-03-12T18:23:57.547Z,4.22
2019-03-12T18:28:59.726Z,4.10
2019-03-12T18:34:01.916Z,2.95
2019-03-12T18:39:07.237Z,4.53
2019-03-12T18:44:09.282Z,2.58
2019-03-12T18:49:11.371Z,3.92
2019-03-12T18:54:13.409Z,2.12
2019-03-12T18:59:15.476Z,2.70
2019-03-12T19:04:17.594Z,3.17
2019-03-12T19:09:19.667Z,3.55
2019-03-12T19:14:22.188Z,1.77
2019-03-12T19:19:24.241Z,1.65
2019-03-12T19:24:26.366Z,2.62
2019-03-12T19:29:28.798Z,3.77
2019-03-12T19:34:32.758Z,2.92
2019-03-12T19:39:35.784Z,4.20
2019-03-12T19:44:37.844Z,3.70
2019-03-12T19:49:40.580Z,4.40
2019-03-12T19:54:42.856Z,3.92
2019-03-12T19:59:44.929Z,4.92
2019-03-12T20:04:47.696Z,3.22
2019-03-12T20:10:13.988Z,3.10
2019-03-12T20:15:55.005Z,3.05
2019-03-12T20:22:06.866Z,3.37
2019-03-12T20:28:08.824Z,4.05
2019-03-12T20:34:17.490Z,5.58
2019-03-12T20:39:56.342Z,2.92
2019-03-12T20:45:35.371Z,2.02
2019-03-12T20:51:13.501Z,2.25
2019-03-12T20:57:07.999Z,3.42
2019-03-12T21:02:48.092Z,2.77
2019-03-12T21:08:20.096Z,3.17
2019-03-12T21:14:34.796Z,3.12
2019-03-12T21:20:38.853Z,4.08
2019-03-12T21:26:29.098Z,2.87
2019-03-12T21:31:31.389Z,2.92
2019-03-12T21:36:34.567Z,3.22
2019-03-12T21:41:36.713Z,4.08
2019-03-12T21:46:38.772Z,2.77
2019-03-12T21:51:41.327Z,5.35
2019-03-12T21:56:43.429Z,4.85
2019-03-12T22:01:45.591Z,4.35
2019-03-12T22:06:47.655Z,2.55
2019-03-12T22:11:49.778Z,4.25
2019-03-12T22:16:55.163Z,2.20
2019-03-12T22:22:19.835Z,2.35
2019-03-12T22:27:21.905Z,3.72
2019-03-12T22:32:24.095Z,2.67
2019-03-12T22:37:26.175Z,2.83
2019-03-12T22:42:28.256Z,3.60
2019-03-12T22:47:30.690Z,2.75
2019-03-12T22:52:32.780Z,3.02
2019-03-12T22:57:34.778Z,4.10
2019-03-12T23:02:36.972Z,3.22
2019-03-12T23:07:39.384Z,5.95
2019-03-12T23:12:41.398Z,2.98
2019-03-12T23:17:43.575Z,4.67
2019-03-12T23:22:47.052Z,2.90
2019-03-12T23:27:49.096Z,3.65
2019-03-12T23:32:51.681Z,2.77
2019-03-12T23:37:53.780Z,5.92
2019-03-12T23:42:55.859Z,4.50
2019-03-12T23:47:57.949Z,2.12
2019-03-12T23:53:00.129Z,4.40
2019-03-12T23:58:02.538Z,1.30
